sensor_id;sensor_type;location;lat;lon;timestamp;P1;durP1;ratioP1;P2;durP2;ratioP2
30818;SDS011;17546;42.674;23.284;2022-11-20T00:00:34;5.78;;;1.15;;
30818;SDS011;17546;42.674;23.284;2022-11-20T00:02:59;5.50;;;1.10;;
30818;SDS011;17546;42.674;23.284;2022-11-20T00:05:25;8.25;;;1.48;;
30818;SDS011;17546;42.674;23.284;2022-11-20T00:07:50;6.88;;;1.27;;
30818;SDS011;17546;42.674;23.284;2022-11-20T00:10:16;4.13;;;1.30;;
30818;SDS011;17546;42.674;23.284;2022-11-20T00:12:44;8.32;;;1.50;;
30818;SDS011;17546;42.674;23.284;2022-11-20T00:15:09;5.47;;;1.27;;
30818;SDS011;17546;42.674;23.284;2022-11-20T00:17:35;5.43;;;1.23;;
30818;SDS011;17546;42.674;23.284;2022-11-20T00:20:00;4.72;;;1.13;;
30818;SDS011;17546;42.674;23.284;2022-11-20T00:22:25;14.20;;;1.38;;
30818;SDS011;17546;42.674;23.284;2022-11-20T00:24:51;3.50;;;1.10;;
30818;SDS011;17546;42.674;23.284;2022-11-20T00:27:16;6.65;;;1.02;;
30818;SDS011;17546;42.674;23.284;2022-11-20T00:29:42;6.25;;;1.30;;
30818;SDS011;17546;42.674;23.284;2022-11-20T00:32:07;4.65;;;0.95;;
30818;SDS011;17546;42.674;23.284;2022-11-20T00:34:33;3.28;;;1.25;;
30818;SDS011;17546;42.674;23.284;2022-11-20T00:36:58;5.00;;;0.95;;
30818;SDS011;17546;42.674;23.284;2022-11-20T00:39:23;6.57;;;1.13;;
30818;SDS011;17546;42.674;23.284;2022-11-20T00:41:49;5.00;;;1.10;;
30818;SDS011;17546;42.674;23.284;2022-11-20T00:44:15;7.35;;;1.00;;
30818;SDS011;17546;42.674;23.284;2022-11-20T00:46:40;7.60;;;1.63;;
30818;SDS011;17546;42.674;23.284;2022-11-20T00:49:06;8.38;;;1.40;;
30818;SDS011;17546;42.674;23.284;2022-11-20T00:51:31;2.90;;;1.00;;
30818;SDS011;17546;42.674;23.284;2022-11-20T00:53:57;4.93;;;1.10;;
30818;SDS011;17546;42.674;23.284;2022-11-20T00:56:24;5.63;;;0.95;;
30818;SDS011;17546;42.674;23.284;2022-11-20T00:58:51;2.90;;;1.05;;
30818;SDS011;17546;42.674;23.284;2022-11-20T01:01:20;8.68;;;1.50;;
30818;SDS011;17546;42.674;23.284;2022-11-20T01:03:55;6.13;;;1.38;;
30818;SDS011;17546;42.674;23.284;2022-11-20T01:06:24;3.97;;;1.27;;
30818;SDS011;17546;42.674;23.284;2022-11-20T01:08:57;5.38;;;1.33;;
30818;SDS011;17546;42.674;23.284;2022-11-20T01:11:28;6.82;;;1.17;;
30818;SDS011;17546;42.674;23.284;2022-11-20T01:14:04;5.15;;;1.33;;
30818;SDS011;17546;42.674;23.284;2022-11-20T01:16:36;4.35;;;1.10;;
30818;SDS011;17546;42.674;23.284;2022-11-20T01:19:04;8.35;;;1.30;;
30818;SDS011;17546;42.674;23.284;2022-11-20T01:21:33;5.65;;;1.35;;
30818;SDS011;17546;42.674;23.284;2022-11-20T01:24:06;7.68;;;1.15;;
30818;SDS011;17546;42.674;23.284;2022-11-20T01:26:33;2.15;;;0.80;;
30818;SDS011;17546;42.674;23.284;2022-11-20T01:29:00;4.47;;;1.58;;
30818;SDS011;17546;42.674;23.284;2022-11-20T01:31:27;3.50;;;1.08;;
30818;SDS011;17546;42.674;23.284;2022-11-20T01:34:09;4.53;;;1.00;;
30818;SDS011;17546;42.674;23.284;2022-11-20T01:36:36;4.53;;;1.05;;
30818;SDS011;17546;42.674;23.284;2022-11-20T01:39:13;3.90;;;1.15;;
30818;SDS011;17546;42.674;23.284;2022-11-20T01:41:46;12.32;;;0.90;;
30818;SDS011;17546;42.674;23.284;2022-11-20T01:44:48;2.47;;;0.90;;
30818;SDS011;17546;42.674;23.284;2022-11-20T01:47:23;3.00;;;0.80;;
30818;SDS011;17546;42.674;23.284;2022-11-20T01:50:14;8.68;;;1.17;;
30818;SDS011;17546;42.674;23.284;2022-11-20T01:55:32;4.63;;;1.00;;
30818;SDS011;17546;42.674;23.284;2022-11-20T01:58:09;4.57;;;1.10;;
30818;SDS011;17546;42.674;23.284;2022-11-20T02:00:35;4.63;;;0.95;;
30818;SDS011;17546;42.674;23.284;2022-11-20T02:03:01;4.00;;;1.23;;
30818;SDS011;17546;42.674;23.284;2022-11-20T02:05:38;7.28;;;1.35;;
30818;SDS011;17546;42.674;23.284;2022-11-20T02:08:09;2.15;;;1.00;;
30818;SDS011;17546;42.674;23.284;2022-11-20T02:10:35;3.33;;;1.00;;
30818;SDS011;17546;42.674;23.284;2022-11-20T02:13:01;4.47;;;0.80;;
30818;SDS011;17546;42.674;23.284;2022-11-20T02:15:45;3.83;;;1.05;;
30818;SDS011;17546;42.674;23.284;2022-11-20T02:18:13;4.20;;;1.30;;
30818;SDS011;17546;42.674;23.284;2022-11-20T02:20:44;6.15;;;1.00;;
30818;SDS011;17546;42.674;23.284;2022-11-20T02:23:12;4.57;;;1.33;;
30818;SDS011;17546;42.674;23.284;2022-11-20T02:25:39;10.73;;;1.23;;
30818;SDS011;17546;42.674;23.284;2022-11-20T02:28:06;3.08;;;1.00;;
30818;SDS011;17546;42.674;23.284;2022-11-20T02:30:32;4.90;;;1.00;;
30818;SDS011;17546;42.674;23.284;2022-11-20T02:33:05;4.18;;;1.02;;
30818;SDS011;17546;42.674;23.284;2022-11-20T02:37:57;7.18;;;1.08;;
30818;SDS011;17546;42.674;23.284;2022-11-20T02:40:24;2.83;;;0.90;;
30818;SDS011;17546;42.674;23.284;2022-11-20T02:42:54;2.03;;;1.15;;
30818;SDS011;17546;42.674;23.284;2022-11-20T02:45:20;5.15;;;1.10;;
30818;SDS011;17546;42.674;23.284;2022-11-20T02:47:47;6.78;;;1.20;;
30818;SDS011;17546;42.674;23.284;2022-11-20T02:50:13;2.58;;;1.00;;
30818;SDS011;17546;42.674;23.284;2022-11-20T02:52:38;5.15;;;1.30;;
30818;SDS011;17546;42.674;23.284;2022-11-20T02:55:05;5.18;;;1.13;;
30818;SDS011;17546;42.674;23.284;2022-11-20T02:57:31;5.70;;;1.00;;
30818;SDS011;17546;42.674;23.284;2022-11-20T02:59:56;5.43;;;1.33;;
30818;SDS011;17546;42.674;23.284;2022-11-20T03:02:22;4.60;;;1.30;;
30818;SDS011;17546;42.674;23.284;2022-11-20T03:04:47;3.42;;;1.15;;
30818;SDS011;17546;42.674;23.284;2022-11-20T03:07:12;6.30;;;1.42;;
30818;SDS011;17546;42.674;23.284;2022-11-20T03:09:38;2.92;;;1.20;;
30818;SDS011;17546;42.674;23.284;2022-11-20T03:12:03;7.97;;;1.30;;
30818;SDS011;17546;42.674;23.284;2022-11-20T03:14:29;13.10;;;1.50;;
30818;SDS011;17546;42.674;23.284;2022-11-20T03:16:55;7.15;;;1.15;;
30818;SDS011;17546;42.674;23.284;2022-11-20T03:19:21;5.03;;;1.27;;
30818;SDS011;17546;42.674;23.284;2022-11-20T03:21:46;4.68;;;1.30;;
30818;SDS011;17546;42.674;23.284;2022-11-20T03:24:12;5.68;;;1.10;;
30818;SDS011;17546;42.674;23.284;2022-11-20T03:26:38;4.38;;;1.25;;
30818;SDS011;17546;42.674;23.284;2022-11-20T03:29:04;7.47;;;1.33;;
30818;SDS011;17546;42.674;23.284;2022-11-20T03:31:30;4.90;;;1.00;;
30818;SDS011;17546;42.674;23.284;2022-11-20T03:33:58;4.93;;;1.02;;
30818;SDS011;17546;42.674;23.284;2022-11-20T03:36:41;5.55;;;1.50;;
30818;SDS011;17546;42.674;23.284;2022-11-20T03:39:07;9.88;;;1.35;;
30818;SDS011;17546;42.674;23.284;2022-11-20T03:41:37;4.68;;;1.10;;
30818;SDS011;17546;42.674;23.284;2022-11-20T03:44:05;3.30;;;1.00;;
30818;SDS011;17546;42.674;23.284;2022-11-20T03:46:32;6.00;;;1.17;;
30818;SDS011;17546;42.674;23.284;2022-11-20T03:48:58;4.18;;;1.15;;
30818;SDS011;17546;42.674;23.284;2022-11-20T03:51:25;6.53;;;1.38;;
30818;SDS011;17546;42.674;23.284;2022-11-20T03:53:53;4.43;;;1.40;;
30818;SDS011;17546;42.674;23.284;2022-11-20T03:56:22;5.70;;;1.20;;
30818;SDS011;17546;42.674;23.284;2022-11-20T03:58:49;7.25;;;1.25;;
30818;SDS011;17546;42.674;23.284;2022-11-20T04:01:16;6.95;;;1.63;;
30818;SDS011;17546;42.674;23.284;2022-11-20T04:03:44;9.07;;;1.20;;
30818;SDS011;17546;42.674;23.284;2022-11-20T04:08:46;9.85;;;1.20;;
30818;SDS011;17546;42.674;23.284;2022-11-20T04:13:38;10.52;;;1.27;;
30818;SDS011;17546;42.674;23.284;2022-11-20T04:16:05;4.18;;;1.10;;
30818;SDS011;17546;42.674;23.284;2022-11-20T04:18:31;2.58;;;0.90;;
30818;SDS011;17546;42.674;23.284;2022-11-20T04:20:57;4.05;;;1.30;;
30818;SDS011;17546;42.674;23.284;2022-11-20T04:23:23;2.75;;;0.90;;
30818;SDS011;17546;42.674;23.284;2022-11-20T04:25:49;6.47;;;1.00;;
30818;SDS011;17546;42.674;23.284;2022-11-20T04:28:15;3.30;;;1.20;;
30818;SDS011;17546;42.674;23.284;2022-11-20T04:30:40;4.60;;;1.05;;
30818;SDS011;17546;42.674;23.284;2022-11-20T04:33:06;6.55;;;1.30;;
30818;SDS011;17546;42.674;23.284;2022-11-20T04:35:33;6.15;;;1.20;;
30818;SDS011;17546;42.674;23.284;2022-11-20T04:37:59;3.80;;;0.90;;
30818;SDS011;17546;42.674;23.284;2022-11-20T04:40:24;2.33;;;0.90;;
30818;SDS011;17546;42.674;23.284;2022-11-20T04:42:50;3.40;;;0.90;;
30818;SDS011;17546;42.674;23.284;2022-11-20T04:45:15;4.20;;;1.13;;
30818;SDS011;17546;42.674;23.284;2022-11-20T04:47:41;1.88;;;0.80;;
30818;SDS011;17546;42.674;23.284;2022-11-20T04:50:06;5.75;;;0.95;;
30818;SDS011;17546;42.674;23.284;2022-11-20T04:52:32;3.42;;;0.70;;
30818;SDS011;17546;42.674;23.284;2022-11-20T04:54:57;3.83;;;0.98;;
30818;SDS011;17546;42.674;23.284;2022-11-20T04:57:23;5.28;;;1.10;;
30818;SDS011;17546;42.674;23.284;2022-11-20T04:59:48;3.92;;;1.55;;
30818;SDS011;17546;42.674;23.284;2022-11-20T05:02:13;2.10;;;1.10;;
30818;SDS011;17546;42.674;23.284;2022-11-20T05:04:39;6.28;;;1.38;;
30818;SDS011;17546;42.674;23.284;2022-11-20T05:07:04;2.47;;;0.80;;
30818;SDS011;17546;42.674;23.284;2022-11-20T05:09:30;7.25;;;1.10;;
30818;SDS011;17546;42.674;23.284;2022-11-20T05:11:55;3.22;;;0.70;;
30818;SDS011;17546;42.674;23.284;2022-11-20T05:14:21;3.85;;;0.80;;
30818;SDS011;17546;42.674;23.284;2022-11-20T05:16:46;3.38;;;0.98;;
30818;SDS011;17546;42.674;23.284;2022-11-20T05:19:11;2.45;;;0.80;;
30818;SDS011;17546;42.674;23.284;2022-11-20T05:21:37;4.57;;;1.17;;
30818;SDS011;17546;42.674;23.284;2022-11-20T05:24:02;5.25;;;1.13;;
30818;SDS011;17546;42.674;23.284;2022-11-20T05:26:28;2.00;;;0.60;;
30818;SDS011;17546;42.674;23.284;2022-11-20T05:28:53;8.38;;;1.00;;
30818;SDS011;17546;42.674;23.284;2022-11-20T05:31:23;2.95;;;1.05;;
30818;SDS011;17546;42.674;23.284;2022-11-20T05:33:49;4.45;;;0.90;;
30818;SDS011;17546;42.674;23.284;2022-11-20T05:36:15;5.60;;;0.95;;
30818;SDS011;17546;42.674;23.284;2022-11-20T05:38:41;13.40;;;1.25;;
30818;SDS011;17546;42.674;23.284;2022-11-20T05:43:36;5.15;;;1.50;;
30818;SDS011;17546;42.674;23.284;2022-11-20T05:46:03;5.15;;;1.20;;
30818;SDS011;17546;42.674;23.284;2022-11-20T05:48:30;3.70;;;1.08;;
30818;SDS011;17546;42.674;23.284;2022-11-20T05:50:59;3.35;;;0.82;;
30818;SDS011;17546;42.674;23.284;2022-11-20T05:53:26;6.78;;;1.00;;
30818;SDS011;17546;42.674;23.284;2022-11-20T05:56:02;3.88;;;1.10;;
30818;SDS011;17546;42.674;23.284;2022-11-20T05:58:29;2.17;;;0.98;;
30818;SDS011;17546;42.674;23.284;2022-11-20T06:01:02;5.38;;;1.02;;
30818;SDS011;17546;42.674;23.284;2022-11-20T06:03:39;4.07;;;1.00;;
30818;SDS011;17546;42.674;23.284;2022-11-20T06:06:07;4.95;;;0.98;;
30818;SDS011;17546;42.674;23.284;2022-11-20T06:08:33;7.30;;;0.95;;
30818;SDS011;17546;42.674;23.284;2022-11-20T06:11:02;4.47;;;1.02;;
30818;SDS011;17546;42.674;23.284;2022-11-20T06:13:29;5.65;;;1.30;;
30818;SDS011;17546;42.674;23.284;2022-11-20T06:15:59;6.25;;;1.60;;
30818;SDS011;17546;42.674;23.284;2022-11-20T06:18:25;6.13;;;1.42;;
30818;SDS011;17546;42.674;23.284;2022-11-20T06:20:58;5.13;;;1.10;;
30818;SDS011;17546;42.674;23.284;2022-11-20T06:23:25;9.82;;;1.38;;
30818;SDS011;17546;42.674;23.284;2022-11-20T06:25:50;9.10;;;1.60;;
30818;SDS011;17546;42.674;23.284;2022-11-20T06:28:15;3.92;;;1.10;;
30818;SDS011;17546;42.674;23.284;2022-11-20T06:30:44;4.72;;;1.77;;
30818;SDS011;17546;42.674;23.284;2022-11-20T06:33:10;7.05;;;1.48;;
30818;SDS011;17546;42.674;23.284;2022-11-20T06:35:36;6.28;;;1.30;;
30818;SDS011;17546;42.674;23.284;2022-11-20T06:38:01;4.97;;;1.42;;
30818;SDS011;17546;42.674;23.284;2022-11-20T06:40:27;3.20;;;1.05;;
30818;SDS011;17546;42.674;23.284;2022-11-20T06:42:53;6.53;;;1.17;;
30818;SDS011;17546;42.674;23.284;2022-11-20T06:45:19;8.23;;;1.10;;
30818;SDS011;17546;42.674;23.284;2022-11-20T06:47:45;5.43;;;1.10;;
30818;SDS011;17546;42.674;23.284;2022-11-20T06:50:10;5.90;;;1.35;;
30818;SDS011;17546;42.674;23.284;2022-11-20T06:52:36;6.57;;;1.13;;
30818;SDS011;17546;42.674;23.284;2022-11-20T06:55:01;7.82;;;1.10;;
30818;SDS011;17546;42.674;23.284;2022-11-20T06:57:27;8.77;;;1.70;;
30818;SDS011;17546;42.674;23.284;2022-11-20T06:59:52;5.82;;;1.50;;
30818;SDS011;17546;42.674;23.284;2022-11-20T07:02:18;4.88;;;1.33;;
30818;SDS011;17546;42.674;23.284;2022-11-20T07:04:43;4.40;;;1.40;;
30818;SDS011;17546;42.674;23.284;2022-11-20T07:07:09;6.32;;;1.00;;
30818;SDS011;17546;42.674;23.284;2022-11-20T07:09:34;7.82;;;1.27;;
30818;SDS011;17546;42.674;23.284;2022-11-20T07:11:59;7.15;;;1.27;;
30818;SDS011;17546;42.674;23.284;2022-11-20T07:14:25;3.92;;;1.02;;
30818;SDS011;17546;42.674;23.284;2022-11-20T07:16:50;4.35;;;0.98;;
30818;SDS011;17546;42.674;23.284;2022-11-20T07:19:16;7.88;;;0.98;;
30818;SDS011;17546;42.674;23.284;2022-11-20T07:21:41;8.57;;;1.30;;
30818;SDS011;17546;42.674;23.284;2022-11-20T07:24:07;5.00;;;1.40;;
30818;SDS011;17546;42.674;23.284;2022-11-20T07:26:32;4.53;;;1.20;;
30818;SDS011;17546;42.674;23.284;2022-11-20T07:28:58;5.85;;;1.60;;
30818;SDS011;17546;42.674;23.284;2022-11-20T07:31:23;9.73;;;1.20;;
30818;SDS011;17546;42.674;23.284;2022-11-20T07:33:48;5.78;;;1.23;;
30818;SDS011;17546;42.674;23.284;2022-11-20T07:36:14;9.25;;;1.42;;
30818;SDS011;17546;42.674;23.284;2022-11-20T07:38:39;7.50;;;1.23;;
30818;SDS011;17546;42.674;23.284;2022-11-20T07:41:05;5.50;;;1.00;;
30818;SDS011;17546;42.674;23.284;2022-11-20T07:43:30;10.02;;;1.70;;
30818;SDS011;17546;42.674;23.284;2022-11-20T07:45:56;7.40;;;1.30;;
30818;SDS011;17546;42.674;23.284;2022-11-20T07:48:22;5.95;;;1.40;;
30818;SDS011;17546;42.674;23.284;2022-11-20T07:50:48;7.10;;;1.33;;
30818;SDS011;17546;42.674;23.284;2022-11-20T07:53:14;8.82;;;1.38;;
30818;SDS011;17546;42.674;23.284;2022-11-20T07:55:45;5.13;;;1.38;;
30818;SDS011;17546;42.674;23.284;2022-11-20T07:58:11;9.77;;;1.92;;
30818;SDS011;17546;42.674;23.284;2022-11-20T08:00:36;9.70;;;2.20;;
30818;SDS011;17546;42.674;23.284;2022-11-20T08:03:03;7.70;;;2.35;;
30818;SDS011;17546;42.674;23.284;2022-11-20T08:05:29;8.25;;;2.20;;
30818;SDS011;17546;42.674;23.284;2022-11-20T08:07:55;9.68;;;2.45;;
30818;SDS011;17546;42.674;23.284;2022-11-20T08:10:20;9.07;;;2.58;;
30818;SDS011;17546;42.674;23.284;2022-11-20T08:12:46;8.77;;;2.58;;
30818;SDS011;17546;42.674;23.284;2022-11-20T08:15:35;6.00;;;2.00;;
30818;SDS011;17546;42.674;23.284;2022-11-20T08:18:08;8.45;;;2.42;;
30818;SDS011;17546;42.674;23.284;2022-11-20T08:20:37;6.00;;;2.20;;
30818;SDS011;17546;42.674;23.284;2022-11-20T08:23:05;3.22;;;1.60;;
30818;SDS011;17546;42.674;23.284;2022-11-20T08:25:32;10.77;;;1.65;;
30818;SDS011;17546;42.674;23.284;2022-11-20T08:27:58;10.38;;;1.77;;
30818;SDS011;17546;42.674;23.284;2022-11-20T08:30:25;9.88;;;1.83;;
30818;SDS011;17546;42.674;23.284;2022-11-20T08:32:50;11.32;;;1.60;;
30818;SDS011;17546;42.674;23.284;2022-11-20T08:35:16;8.18;;;1.58;;
30818;SDS011;17546;42.674;23.284;2022-11-20T08:37:41;8.52;;;1.40;;
30818;SDS011;17546;42.674;23.284;2022-11-20T08:40:11;8.15;;;1.70;;
30818;SDS011;17546;42.674;23.284;2022-11-20T08:42:37;7.45;;;1.55;;
30818;SDS011;17546;42.674;23.284;2022-11-20T08:45:11;9.85;;;1.85;;
30818;SDS011;17546;42.674;23.284;2022-11-20T08:47:37;13.45;;;1.65;;
30818;SDS011;17546;42.674;23.284;2022-11-20T08:50:02;5.50;;;1.40;;
30818;SDS011;17546;42.674;23.284;2022-11-20T08:52:27;10.25;;;1.63;;
30818;SDS011;17546;42.674;23.284;2022-11-20T08:54:53;7.03;;;1.70;;
30818;SDS011;17546;42.674;23.284;2022-11-20T08:57:18;11.05;;;2.10;;
30818;SDS011;17546;42.674;23.284;2022-11-20T08:59:46;12.13;;;2.00;;
30818;SDS011;17546;42.674;23.284;2022-11-20T09:02:12;7.22;;;1.80;;
30818;SDS011;17546;42.674;23.284;2022-11-20T09:04:38;11.80;;;2.78;;
30818;SDS011;17546;42.674;23.284;2022-11-20T09:07:03;9.85;;;2.30;;
30818;SDS011;17546;42.674;23.284;2022-11-20T09:09:29;15.82;;;2.78;;
30818;SDS011;17546;42.674;23.284;2022-11-20T09:11:54;8.60;;;1.88;;
30818;SDS011;17546;42.674;23.284;2022-11-20T09:14:20;13.20;;;2.25;;
30818;SDS011;17546;42.674;23.284;2022-11-20T09:16:46;16.48;;;2.38;;
30818;SDS011;17546;42.674;23.284;2022-11-20T09:19:11;9.27;;;2.25;;
30818;SDS011;17546;42.674;23.284;2022-11-20T09:21:37;11.90;;;2.33;;
30818;SDS011;17546;42.674;23.284;2022-11-20T09:24:02;8.50;;;1.60;;
30818;SDS011;17546;42.674;23.284;2022-11-20T09:26:28;9.07;;;1.52;;
30818;SDS011;17546;42.674;23.284;2022-11-20T09:28:53;12.02;;;1.27;;
30818;SDS011;17546;42.674;23.284;2022-11-20T09:31:23;4.90;;;1.08;;
30818;SDS011;17546;42.674;23.284;2022-11-20T09:33:50;7.35;;;1.70;;
30818;SDS011;17546;42.674;23.284;2022-11-20T09:36:20;4.65;;;1.40;;
30818;SDS011;17546;42.674;23.284;2022-11-20T09:38:46;14.23;;;1.77;;
30818;SDS011;17546;42.674;23.284;2022-11-20T09:44:09;13.43;;;2.70;;
30818;SDS011;17546;42.674;23.284;2022-11-20T09:47:08;11.30;;;1.85;;
30818;SDS011;17546;42.674;23.284;2022-11-20T09:49:51;11.32;;;1.90;;
30818;SDS011;17546;42.674;23.284;2022-11-20T09:55:10;10.10;;;1.90;;
30818;SDS011;17546;42.674;23.284;2022-11-20T09:57:39;8.65;;;2.35;;
30818;SDS011;17546;42.674;23.284;2022-11-20T10:00:09;11.70;;;2.83;;
30818;SDS011;17546;42.674;23.284;2022-11-20T10:02:39;12.55;;;2.95;;
30818;SDS011;17546;42.674;23.284;2022-11-20T10:11:11;9.32;;;2.00;;
30818;SDS011;17546;42.674;23.284;2022-11-20T10:22:35;10.40;;;2.58;;
30818;SDS011;17546;42.674;23.284;2022-11-20T10:31:04;12.85;;;3.30;;
30818;SDS011;17546;42.674;23.284;2022-11-20T10:33:41;10.32;;;2.88;;
30818;SDS011;17546;42.674;23.284;2022-11-20T10:36:20;12.13;;;2.70;;
30818;SDS011;17546;42.674;23.284;2022-11-20T10:38:54;12.02;;;2.78;;
30818;SDS011;17546;42.674;23.284;2022-11-20T10:41:26;7.07;;;2.45;;
30818;SDS011;17546;42.674;23.284;2022-11-20T10:46:33;11.68;;;2.75;;
30818;SDS011;17546;42.674;23.284;2022-11-20T10:49:04;18.50;;;4.07;;
30818;SDS011;17546;42.674;23.284;2022-11-20T10:51:37;16.42;;;3.60;;
30818;SDS011;17546;42.674;23.284;2022-11-20T10:56:51;24.52;;;3.42;;
30818;SDS011;17546;42.674;23.284;2022-11-20T11:00:18;19.33;;;3.47;;
30818;SDS011;17546;42.674;23.284;2022-11-20T11:02:31;17.35;;;3.50;;
30818;SDS011;17546;42.674;23.284;2022-11-20T11:05:16;16.15;;;3.05;;
30818;SDS011;17546;42.674;23.284;2022-11-20T11:07:50;15.15;;;1.98;;
30818;SDS011;17546;42.674;23.284;2022-11-20T11:10:21;7.25;;;1.85;;
30818;SDS011;17546;42.674;23.284;2022-11-20T11:12:49;8.35;;;1.70;;
30818;SDS011;17546;42.674;23.284;2022-11-20T11:15:37;4.60;;;1.60;;
30818;SDS011;17546;42.674;23.284;2022-11-20T11:18:04;8.88;;;1.30;;
30818;SDS011;17546;42.674;23.284;2022-11-20T11:20:33;5.53;;;1.30;;
30818;SDS011;17546;42.674;23.284;2022-11-20T11:22:59;6.28;;;1.35;;
30818;SDS011;17546;42.674;23.284;2022-11-20T11:25:26;7.55;;;1.25;;
30818;SDS011;17546;42.674;23.284;2022-11-20T11:28:04;6.97;;;1.73;;
30818;SDS011;17546;42.674;23.284;2022-11-20T11:30:46;5.05;;;0.90;;
30818;SDS011;17546;42.674;23.284;2022-11-20T11:33:24;5.93;;;0.98;;
30818;SDS011;17546;42.674;23.284;2022-11-20T11:36:20;6.72;;;1.83;;
30818;SDS011;17546;42.674;23.284;2022-11-20T11:38:50;5.40;;;1.25;;
30818;SDS011;17546;42.674;23.284;2022-11-20T11:41:22;5.70;;;1.38;;
30818;SDS011;17546;42.674;23.284;2022-11-20T11:43:56;15.80;;;1.63;;
30818;SDS011;17546;42.674;23.284;2022-11-20T11:46:45;1.88;;;0.75;;
30818;SDS011;17546;42.674;23.284;2022-11-20T11:49:18;4.85;;;0.98;;
30818;SDS011;17546;42.674;23.284;2022-11-20T11:57:05;4.97;;;1.38;;
30818;SDS011;17546;42.674;23.284;2022-11-20T12:03:03;7.05;;;2.00;;
30818;SDS011;17546;42.674;23.284;2022-11-20T12:05:17;8.88;;;1.60;;
30818;SDS011;17546;42.674;23.284;2022-11-20T12:07:48;3.65;;;1.00;;
30818;SDS011;17546;42.674;23.284;2022-11-20T12:15:41;8.35;;;1.85;;
30818;SDS011;17546;42.674;23.284;2022-11-20T12:18:14;11.30;;;1.40;;
30818;SDS011;17546;42.674;23.284;2022-11-20T12:20:45;8.05;;;1.10;;
30818;SDS011;17546;42.674;23.284;2022-11-20T12:23:24;6.38;;;1.17;;
30818;SDS011;17546;42.674;23.284;2022-11-20T12:26:27;8.45;;;1.48;;
30818;SDS011;17546;42.674;23.284;2022-11-20T12:34:52;3.17;;;0.90;;
30818;SDS011;17546;42.674;23.284;2022-11-20T12:53:59;10.80;;;1.70;;
30818;SDS011;17546;42.674;23.284;2022-11-20T13:01:58;8.98;;;2.92;;
30818;SDS011;17546;42.674;23.284;2022-11-20T13:07:35;15.00;;;3.97;;
30818;SDS011;17546;42.674;23.284;2022-11-20T13:10:01;14.20;;;4.00;;
30818;SDS011;17546;42.674;23.284;2022-11-20T13:12:39;14.50;;;3.55;;
30818;SDS011;17546;42.674;23.284;2022-11-20T13:17:58;18.30;;;8.63;;
30818;SDS011;17546;42.674;23.284;2022-11-20T13:20:25;22.38;;;6.80;;
30818;SDS011;17546;42.674;23.284;2022-11-20T13:22:53;15.40;;;5.78;;
30818;SDS011;17546;42.674;23.284;2022-11-20T13:25:23;12.02;;;3.90;;
30818;SDS011;17546;42.674;23.284;2022-11-20T13:27:58;22.05;;;9.55;;
30818;SDS011;17546;42.674;23.284;2022-11-20T13:30:29;12.88;;;5.82;;
30818;SDS011;17546;42.674;23.284;2022-11-20T13:33:02;21.95;;;8.15;;
30818;SDS011;17546;42.674;23.284;2022-11-20T13:36:20;16.77;;;7.63;;
30818;SDS011;17546;42.674;23.284;2022-11-20T13:38:28;22.10;;;7.47;;
30818;SDS011;17546;42.674;23.284;2022-11-20T13:41:07;21.27;;;9.55;;
30818;SDS011;17546;42.674;23.284;2022-11-20T13:43:51;12.70;;;5.47;;
30818;SDS011;17546;42.674;23.284;2022-11-20T13:46:17;21.63;;;6.45;;
30818;SDS011;17546;42.674;23.284;2022-11-20T13:48:49;18.60;;;6.40;;
30818;SDS011;17546;42.674;23.284;2022-11-20T13:59:23;11.70;;;4.15;;
30818;SDS011;17546;42.674;23.284;2022-11-20T14:02:01;13.98;;;4.70;;
30818;SDS011;17546;42.674;23.284;2022-11-20T14:04:33;14.90;;;3.97;;
30818;SDS011;17546;42.674;23.284;2022-11-20T14:09:31;11.75;;;4.07;;
30818;SDS011;17546;42.674;23.284;2022-11-20T14:11:59;12.63;;;3.72;;
30818;SDS011;17546;42.674;23.284;2022-11-20T14:14:28;12.88;;;4.13;;
30818;SDS011;17546;42.674;23.284;2022-11-20T14:17:06;12.88;;;4.00;;
30818;SDS011;17546;42.674;23.284;2022-11-20T14:19:42;7.93;;;2.88;;
30818;SDS011;17546;42.674;23.284;2022-11-20T14:25:00;10.15;;;2.63;;
30818;SDS011;17546;42.674;23.284;2022-11-20T14:27:40;7.75;;;2.30;;
30818;SDS011;17546;42.674;23.284;2022-11-20T14:30:21;10.57;;;2.60;;
30818;SDS011;17546;42.674;23.284;2022-11-20T14:32:48;13.65;;;3.58;;
30818;SDS011;17546;42.674;23.284;2022-11-20T14:35:23;9.02;;;2.90;;
30818;SDS011;17546;42.674;23.284;2022-11-20T14:37:54;6.47;;;2.90;;
30818;SDS011;17546;42.674;23.284;2022-11-20T14:40:22;9.38;;;2.95;;
30818;SDS011;17546;42.674;23.284;2022-11-20T14:42:56;10.88;;;3.58;;
30818;SDS011;17546;42.674;23.284;2022-11-20T14:45:22;9.35;;;3.80;;
30818;SDS011;17546;42.674;23.284;2022-11-20T14:47:49;8.82;;;3.55;;
30818;SDS011;17546;42.674;23.284;2022-11-20T14:50:24;6.63;;;2.90;;
30818;SDS011;17546;42.674;23.284;2022-11-20T14:52:59;6.32;;;3.22;;
30818;SDS011;17546;42.674;23.284;2022-11-20T14:55:35;8.88;;;3.42;;
30818;SDS011;17546;42.674;23.284;2022-11-20T14:58:06;7.90;;;3.70;;
30818;SDS011;17546;42.674;23.284;2022-11-20T15:00:58;8.77;;;2.85;;
30818;SDS011;17546;42.674;23.284;2022-11-20T15:03:35;4.55;;;2.40;;
30818;SDS011;17546;42.674;23.284;2022-11-20T15:06:02;6.20;;;2.28;;
30818;SDS011;17546;42.674;23.284;2022-11-20T15:08:28;7.13;;;2.30;;
30818;SDS011;17546;42.674;23.284;2022-11-20T15:10:54;4.63;;;2.00;;
30818;SDS011;17546;42.674;23.284;2022-11-20T15:15:55;7.93;;;2.45;;
30818;SDS011;17546;42.674;23.284;2022-11-20T15:18:29;8.18;;;2.42;;
30818;SDS011;17546;42.674;23.284;2022-11-20T15:21:03;5.90;;;2.65;;
30818;SDS011;17546;42.674;23.284;2022-11-20T15:23:34;7.38;;;2.70;;
30818;SDS011;17546;42.674;23.284;2022-11-20T15:26:00;6.43;;;2.28;;
30818;SDS011;17546;42.674;23.284;2022-11-20T15:28:42;4.50;;;2.60;;
30818;SDS011;17546;42.674;23.284;2022-11-20T15:31:12;5.60;;;2.58;;
30818;SDS011;17546;42.674;23.284;2022-11-20T15:33:40;5.25;;;2.50;;
30818;SDS011;17546;42.674;23.284;2022-11-20T15:36:06;5.90;;;2.63;;
30818;SDS011;17546;42.674;23.284;2022-11-20T15:38:32;7.05;;;2.38;;
30818;SDS011;17546;42.674;23.284;2022-11-20T15:40:57;4.85;;;2.38;;
30818;SDS011;17546;42.674;23.284;2022-11-20T15:43:22;8.75;;;2.85;;
30818;SDS011;17546;42.674;23.284;2022-11-20T15:45:53;11.45;;;3.00;;
30818;SDS011;17546;42.674;23.284;2022-11-20T15:48:21;14.38;;;4.30;;
30818;SDS011;17546;42.674;23.284;2022-11-20T15:50:52;9.50;;;2.78;;
30818;SDS011;17546;42.674;23.284;2022-11-20T15:53:25;10.13;;;2.80;;
30818;SDS011;17546;42.674;23.284;2022-11-20T15:55:51;8.20;;;2.92;;
30818;SDS011;17546;42.674;23.284;2022-11-20T15:58:16;6.88;;;2.72;;
30818;SDS011;17546;42.674;23.284;2022-11-20T16:00:42;11.48;;;3.15;;
30818;SDS011;17546;42.674;23.284;2022-11-20T16:03:10;7.43;;;3.38;;
30818;SDS011;17546;42.674;23.284;2022-11-20T16:05:37;15.30;;;4.28;;
30818;SDS011;17546;42.674;23.284;2022-11-20T16:08:02;15.25;;;4.25;;
30818;SDS011;17546;42.674;23.284;2022-11-20T16:10:28;12.50;;;4.38;;
30818;SDS011;17546;42.674;23.284;2022-11-20T16:12:53;12.23;;;4.55;;
30818;SDS011;17546;42.674;23.284;2022-11-20T16:15:53;9.60;;;4.22;;
30818;SDS011;17546;42.674;23.284;2022-11-20T16:18:22;5.22;;;2.60;;
30818;SDS011;17546;42.674;23.284;2022-11-20T16:20:50;9.65;;;3.15;;
30818;SDS011;17546;42.674;23.284;2022-11-20T16:23:19;6.07;;;2.53;;
30818;SDS011;17546;42.674;23.284;2022-11-20T16:25:45;8.68;;;2.60;;
30818;SDS011;17546;42.674;23.284;2022-11-20T16:28:12;5.35;;;2.80;;
30818;SDS011;17546;42.674;23.284;2022-11-20T16:30:37;6.43;;;2.22;;